Time;durP1;ratioP1;P1;durP2;ratioP2;P2;SDS_P1;SDS_P2;PMS_P1;PMS_P2;Temp;Humidity;BMP_temperature;BMP_pressure;BME280_temperature;BME280_humidity;BME280_pressure;Samples;Min_cycle;Max_cycle;Signal;HPM_P1;HPM_P2
2023/12/28 00:01:24;;;;;;;4.72;3.08;;;;;;;;;;5072705;28;20040;-73
2023/12/28 00:03:50;;;;;;;6.43;3.33;;;;;;;;;;5072380;28;20037;-73
2023/12/28 00:06:17;;;;;;;4.95;3.40;;;;;;;;;;5071425;28;20047;-73
2023/12/28 00:08:43;;;;;;;6.47;3.40;;;;;;;;;;5074269;28;20036;-72
2023/12/28 00:11:09;;;;;;;4.45;3.30;;;;;;;;;;5056756;28;20212;-72
2023/12/28 00:13:35;;;;;;;5.30;3.38;;;;;;;;;;5052023;28;20076;-72
2023/12/28 00:16:01;;;;;;;3.47;2.80;;;;;;;;;;5071769;28;20029;-72
2023/12/28 00:18:27;;;;;;;7.32;3.38;;;;;;;;;;5071129;28;20086;-73
2023/12/28 00:20:53;;;;;;;4.03;2.90;;;;;;;;;;5071561;28;20037;-73
2023/12/28 00:23:22;;;;;;;5.15;3.05;;;;;;;;;;5051135;28;20043;-73
2023/12/28 00:25:48;;;;;;;5.60;3.75;;;;;;;;;;5069772;28;20507;-73
2023/12/28 00:28:14;;;;;;;4.72;3.13;;;;;;;;;;5054096;28;20072;-74
2023/12/28 00:30:40;;;;;;;6.65;3.72;;;;;;;;;;5053069;28;20344;-73
2023/12/28 00:33:06;;;;;;;5.88;3.15;;;;;;;;;;5070324;28;20036;-73
2023/12/28 00:35:32;;;;;;;6.75;3.53;;;;;;;;;;5071847;28;20406;-72
2023/12/28 00:37:58;;;;;;;4.63;3.20;;;;;;;;;;5071379;28;20036;-72
2023/12/28 00:40:24;;;;;;;5.22;3.70;;;;;;;;;;5071446;28;20029;-72
2023/12/28 00:42:50;;;;;;;7.43;3.45;;;;;;;;;;5070381;28;20490;-72
2023/12/28 00:45:16;;;;;;;5.47;3.50;;;;;;;;;;5069989;28;20032;-72
2023/12/28 00:47:44;;;;;;;5.85;3.60;;;;;;;;;;5053801;28;20059;-73
2023/12/28 00:50:14;;;;;;;5.72;3.50;;;;;;;;;;5055249;28;20093;-73
2023/12/28 00:52:41;;;;;;;5.95;3.42;;;;;;;;;;5053904;28;20219;-74
2023/12/28 00:55:07;;;;;;;6.45;3.83;;;;;;;;;;5070529;28;20513;-74
2023/12/28 00:57:33;;;;;;;6.57;3.60;;;;;;;;;;5070076;28;20087;-74
2023/12/28 00:59:59;;;;;;;5.10;3.55;;;;;;;;;;5078109;28;20029;-73
2023/12/28 01:02:25;;;;;;;6.10;3.40;;;;;;;;;;5066338;28;20028;-73
2023/12/28 01:04:51;;;;;;;6.20;3.65;;;;;;;;;;5071318;28;20040;-73
2023/12/28 01:07:17;;;;;;;4.05;3.35;;;;;;;;;;5058964;28;20048;-73
2023/12/28 01:09:43;;;;;;;5.05;3.38;;;;;;;;;;5074106;28;20078;-73
2023/12/28 01:12:09;;;;;;;6.50;3.38;;;;;;;;;;5067646;28;20163;-73
2023/12/28 01:14:35;;;;;;;6.30;3.20;;;;;;;;;;5069540;28;20047;-73
2023/12/28 01:17:01;;;;;;;5.60;3.45;;;;;;;;;;5064249;28;20068;-73
2023/12/28 01:19:27;;;;;;;7.15;3.67;;;;;;;;;;5057479;28;20049;-73
2023/12/28 01:21:53;;;;;;;6.00;3.40;;;;;;;;;;5051094;28;20043;-73
2023/12/28 01:24:19;;;;;;;5.13;3.40;;;;;;;;;;5068813;28;20090;-73
2023/12/28 01:26:45;;;;;;;5.85;3.60;;;;;;;;;;5073980;28;20398;-73
2023/12/28 01:29:11;;;;;;;4.10;3.20;;;;;;;;;;5070141;28;20039;-73
2023/12/28 01:31:38;;;;;;;4.78;3.42;;;;;;;;;;5071290;28;20048;-72
2023/12/28 01:34:05;;;;;;;7.25;3.83;;;;;;;;;;5067142;28;20037;-73
2023/12/28 01:36:31;;;;;;;6.25;3.10;;;;;;;;;;5065297;28;20040;-73
2023/12/28 01:38:57;;;;;;;6.70;3.42;;;;;;;;;;5073233;28;20575;-73
2023/12/28 01:41:23;;;;;;;5.85;3.22;;;;;;;;;;5073548;28;20036;-74
2023/12/28 01:43:49;;;;;;;6.63;3.30;;;;;;;;;;5074327;28;20036;-74
2023/12/28 01:46:17;;;;;;;7.75;3.75;;;;;;;;;;5081640;28;20043;-74
2023/12/28 01:48:44;;;;;;;4.80;3.28;;;;;;;;;;5077840;28;20046;-74
2023/12/28 01:51:11;;;;;;;6.90;3.10;;;;;;;;;;5073828;28;20044;-74
2023/12/28 01:53:37;;;;;;;5.10;3.65;;;;;;;;;;5050774;28;20395;-74
2023/12/28 01:56:03;;;;;;;7.53;3.70;;;;;;;;;;5080257;28;20399;-74
2023/12/28 01:58:29;;;;;;;6.40;3.28;;;;;;;;;;5076944;28;20033;-74
2023/12/28 02:00:56;;;;;;;7.97;3.40;;;;;;;;;;5053453;28;20437;-74
2023/12/28 02:03:22;;;;;;;9.15;3.60;;;;;;;;;;5074641;28;20499;-74
2023/12/28 02:05:48;;;;;;;6.10;3.20;;;;;;;;;;5057309;28;20444;-74
2023/12/28 02:08:14;;;;;;;6.03;3.33;;;;;;;;;;5077795;28;20564;-74
2023/12/28 02:10:40;;;;;;;5.95;3.35;;;;;;;;;;5074077;28;20040;-74
2023/12/28 02:13:06;;;;;;;8.48;3.60;;;;;;;;;;5071882;28;20028;-73
2023/12/28 02:15:32;;;;;;;6.95;3.40;;;;;;;;;;5058855;28;20037;-73
2023/12/28 02:18:05;;;;;;;7.00;3.70;;;;;;;;;;5074801;28;20119;-73
2023/12/28 02:20:32;;;;;;;5.53;2.90;;;;;;;;;;5078165;28;20094;-73
2023/12/28 02:22:59;;;;;;;5.00;3.42;;;;;;;;;;5053804;28;20131;-73
2023/12/28 02:25:25;;;;;;;5.90;3.20;;;;;;;;;;5073795;28;20031;-73
2023/12/28 02:27:51;;;;;;;6.35;3.03;;;;;;;;;;5078348;28;20087;-73
2023/12/28 02:30:18;;;;;;;5.45;3.42;;;;;;;;;;5081651;28;20068;-73
2023/12/28 02:33:02;;;;;;;5.32;3.38;;;;;;;;;;5072817;28;20044;-74
2023/12/28 02:35:36;;;;;;;5.60;3.42;;;;;;;;;;5079036;28;20059;-74
2023/12/28 02:38:03;;;;;;;6.57;3.60;;;;;;;;;;5081426;28;20060;-74
2023/12/28 02:40:31;;;;;;;6.78;4.00;;;;;;;;;;5079405;28;20036;-74
2023/12/28 02:42:57;;;;;;;6.20;3.67;;;;;;;;;;5075134;28;20066;-74
2023/12/28 02:45:23;;;;;;;5.45;3.80;;;;;;;;;;5062150;28;20081;-74
2023/12/28 02:47:49;;;;;;;5.53;3.33;;;;;;;;;;5080083;28;20039;-74
2023/12/28 02:50:15;;;;;;;7.18;4.10;;;;;;;;;;5061151;28;20113;-74
2023/12/28 02:52:41;;;;;;;5.65;3.28;;;;;;;;;;5079701;28;20137;-74
2023/12/28 02:55:07;;;;;;;4.85;3.50;;;;;;;;;;5059878;28;20486;-74
2023/12/28 02:57:37;;;;;;;9.38;3.50;;;;;;;;;;5077118;28;20047;-74
2023/12/28 03:00:04;;;;;;;7.45;3.55;;;;;;;;;;5069649;28;20039;-74
2023/12/28 03:02:30;;;;;;;7.43;3.20;;;;;;;;;;5053297;28;20402;-74
2023/12/28 03:04:56;;;;;;;4.78;3.30;;;;;;;;;;5057800;28;20055;-74
2023/12/28 03:07:22;;;;;;;10.07;3.28;;;;;;;;;;5052648;28;20410;-74
2023/12/28 03:09:48;;;;;;;9.70;3.85;;;;;;;;;;5074597;28;20041;-74
2023/12/28 03:12:16;;;;;;;7.95;3.67;;;;;;;;;;5076005;28;20140;-74
2023/12/28 03:14:42;;;;;;;5.93;3.47;;;;;;;;;;5065288;28;20044;-74
2023/12/28 03:17:08;;;;;;;6.35;3.45;;;;;;;;;;5047787;28;20044;-74
2023/12/28 03:19:34;;;;;;;8.77;3.53;;;;;;;;;;5054518;28;20075;-74
2023/12/28 03:21:59;;;;;;;7.95;3.58;;;;;;;;;;5072265;28;20063;-74
2023/12/28 03:24:25;;;;;;;7.22;3.42;;;;;;;;;;5035377;28;20170;-74
2023/12/28 03:26:51;;;;;;;10.07;3.40;;;;;;;;;;5071829;28;20036;-74
2023/12/28 03:29:17;;;;;;;8.88;3.42;;;;;;;;;;5072727;28;20032;-74
2023/12/28 03:31:43;;;;;;;7.53;3.55;;;;;;;;;;5055592;28;20056;-74
2023/12/28 03:34:09;;;;;;;6.70;3.45;;;;;;;;;;5078039;28;20318;-74
2023/12/28 03:36:35;;;;;;;6.18;3.10;;;;;;;;;;5076473;28;20028;-74
2023/12/28 03:39:03;;;;;;;9.45;3.28;;;;;;;;;;5083621;28;20051;-73
2023/12/28 03:41:29;;;;;;;6.97;3.30;;;;;;;;;;5073283;28;20396;-73
2023/12/28 03:43:55;;;;;;;9.50;3.05;;;;;;;;;;5053678;28;20059;-73
2023/12/28 03:46:21;;;;;;;6.25;2.85;;;;;;;;;;5053650;28;20086;-73
2023/12/28 03:48:47;;;;;;;5.75;2.78;;;;;;;;;;5071933;28;20401;-73
2023/12/28 03:51:15;;;;;;;11.93;3.50;;;;;;;;;;5053705;28;20124;-73
2023/12/28 03:53:41;;;;;;;9.15;3.08;;;;;;;;;;5053985;28;20040;-73
2023/12/28 03:56:07;;;;;;;7.45;2.75;;;;;;;;;;5070511;28;20028;-73
2023/12/28 03:58:33;;;;;;;6.13;2.95;;;;;;;;;;5069916;28;20040;-73
2023/12/28 04:00:59;;;;;;;6.80;2.72;;;;;;;;;;5049847;28;20046;-73
2023/12/28 04:03:25;;;;;;;7.38;2.72;;;;;;;;;;5065190;28;20396;-73
2023/12/28 04:05:51;;;;;;;8.88;3.28;;;;;;;;;;5067126;28;20041;-73
2023/12/28 04:08:17;;;;;;;6.55;2.53;;;;;;;;;;5054146;28;20047;-73
2023/12/28 04:10:43;;;;;;;4.38;2.88;;;;;;;;;;5053614;28;20076;-73
2023/12/28 04:13:09;;;;;;;8.70;2.72;;;;;;;;;;5064654;28;20091;-73
2023/12/28 04:15:35;;;;;;;6.28;3.20;;;;;;;;;;5070149;28;20039;-74
2023/12/28 04:18:01;;;;;;;7.22;2.78;;;;;;;;;;5069798;28;20039;-74
2023/12/28 04:20:27;;;;;;;6.10;2.67;;;;;;;;;;5067250;28;20563;-73
2023/12/28 04:22:53;;;;;;;8.13;2.97;;;;;;;;;;5067274;28;20059;-73
2023/12/28 04:25:19;;;;;;;7.38;2.80;;;;;;;;;;5070719;28;20036;-73
2023/12/28 04:27:45;;;;;;;6.57;2.97;;;;;;;;;;5071113;28;20044;-73
2023/12/28 04:30:14;;;;;;;6.72;2.70;;;;;;;;;;5071955;28;20041;-73
2023/12/28 04:32:40;;;;;;;7.93;2.65;;;;;;;;;;5066406;28;20145;-73
2023/12/28 04:35:06;;;;;;;8.23;2.90;;;;;;;;;;5066826;28;20402;-74
2023/12/28 04:37:32;;;;;;;10.43;3.08;;;;;;;;;;5053378;28;20094;-73
2023/12/28 04:39:59;;;;;;;6.85;3.40;;;;;;;;;;5071633;28;20064;-73
2023/12/28 04:42:25;;;;;;;10.20;3.20;;;;;;;;;;5065049;28;20048;-73
2023/12/28 04:44:51;;;;;;;6.18;2.40;;;;;;;;;;5049641;28;20075;-73
2023/12/28 04:47:17;;;;;;;7.38;2.70;;;;;;;;;;5065897;28;20520;-73
2023/12/28 04:49:43;;;;;;;4.38;2.38;;;;;;;;;;5069142;28;20036;-73
2023/12/28 04:52:09;;;;;;;6.10;2.35;;;;;;;;;;5070473;28;20478;-73
2023/12/28 04:54:35;;;;;;;5.00;2.53;;;;;;;;;;5052911;28;20116;-73
2023/12/28 04:57:01;;;;;;;13.00;2.90;;;;;;;;;;5067268;28;20574;-73
2023/12/28 04:59:27;;;;;;;7.65;3.08;;;;;;;;;;5070513;28;20119;-73
2023/12/28 05:01:53;;;;;;;5.53;2.85;;;;;;;;;;5062405;28;20499;-74
2023/12/28 05:04:19;;;;;;;7.50;2.67;;;;;;;;;;5063743;28;20071;-74
2023/12/28 05:06:45;;;;;;;8.32;2.40;;;;;;;;;;5067094;28;20044;-74
2023/12/28 05:09:11;;;;;;;8.07;2.92;;;;;;;;;;5069845;28;20521;-72
2023/12/28 05:11:37;;;;;;;10.02;2.90;;;;;;;;;;5070674;28;20048;-72
2023/12/28 05:14:03;;;;;;;6.05;2.35;;;;;;;;;;5069252;28;20029;-72
2023/12/28 05:16:29;;;;;;;6.15;2.72;;;;;;;;;;5074258;28;20528;-73
2023/12/28 05:18:55;;;;;;;8.02;2.60;;;;;;;;;;5074498;28;20075;-73
2023/12/28 05:21:21;;;;;;;11.35;2.63;;;;;;;;;;5047740;28;20403;-73
2023/12/28 05:23:47;;;;;;;9.68;2.30;;;;;;;;;;5068902;28;20047;-73
2023/12/28 05:26:12;;;;;;;7.65;2.30;;;;;;;;;;5060819;28;20036;-73
2023/12/28 05:28:38;;;;;;;8.07;2.78;;;;;;;;;;5044236;28;20828;-73
2023/12/28 05:31:06;;;;;;;9.43;2.72;;;;;;;;;;5047869;28;20063;-73
2023/12/28 05:33:32;;;;;;;8.25;1.98;;;;;;;;;;5063916;22;20044;-74
2023/12/28 05:35:58;;;;;;;12.98;2.95;;;;;;;;;;5045863;28;20049;-72
2023/12/28 05:38:24;;;;;;;6.88;2.30;;;;;;;;;;5042976;28;20104;-72
2023/12/28 05:40:50;;;;;;;7.45;2.50;;;;;;;;;;5049618;28;20194;-72
2023/12/28 05:43:16;;;;;;;10.13;2.67;;;;;;;;;;5056228;28;20025;-74
2023/12/28 05:45:42;;;;;;;8.15;2.42;;;;;;;;;;5059707;28;20363;-74
2023/12/28 05:48:08;;;;;;;10.52;2.67;;;;;;;;;;5065187;28;20483;-74
2023/12/28 05:50:34;;;;;;;14.52;3.17;;;;;;;;;;5054207;28;20120;-74
2023/12/28 05:53:00;;;;;;;6.10;2.42;;;;;;;;;;5044501;28;20725;-74
2023/12/28 05:55:25;;;;;;;11.00;2.55;;;;;;;;;;5055155;28;20547;-74
2023/12/28 05:57:51;;;;;;;11.02;2.63;;;;;;;;;;5045233;28;20123;-75
2023/12/28 06:00:17;;;;;;;10.32;2.58;;;;;;;;;;5072780;28;20032;-74
2023/12/28 06:02:43;;;;;;;7.72;2.20;;;;;;;;;;5063041;28;20178;-74
2023/12/28 06:05:10;;;;;;;11.57;2.58;;;;;;;;;;5060008;28;20504;-75
2023/12/28 06:07:36;;;;;;;10.80;2.50;;;;;;;;;;5066005;28;20081;-74
2023/12/28 06:10:02;;;;;;;13.65;2.50;;;;;;;;;;5066828;28;20033;-74
2023/12/28 06:12:28;;;;;;;10.40;2.45;;;;;;;;;;5068285;28;20112;-74
2023/12/28 06:14:54;;;;;;;12.60;2.78;;;;;;;;;;5062970;28;20039;-74
2023/12/28 06:17:20;;;;;;;7.22;2.17;;;;;;;;;;5063144;28;20380;-74
2023/12/28 06:19:46;;;;;;;9.70;2.80;;;;;;;;;;5076302;28;20043;-74
2023/12/28 06:22:12;;;;;;;9.25;2.60;;;;;;;;;;5078907;28;20048;-75
2023/12/28 06:24:39;;;;;;;9.23;2.35;;;;;;;;;;5070592;28;20044;-75
2023/12/28 06:27:05;;;;;;;13.88;2.70;;;;;;;;;;5070711;28;20040;-75
2023/12/28 06:29:31;;;;;;;11.95;2.28;;;;;;;;;;5073181;28;20212;-75
2023/12/28 06:31:57;;;;;;;12.93;2.83;;;;;;;;;;5068878;28;20116;-75
2023/12/28 06:34:23;;;;;;;15.27;3.13;;;;;;;;;;5064613;28;20086;-75
2023/12/28 06:36:49;;;;;;;7.53;2.10;;;;;;;;;;5068401;28;20388;-75
2023/12/28 06:39:15;;;;;;;11.63;2.13;;;;;;;;;;5072505;28;20040;-75
2023/12/28 06:41:41;;;;;;;11.15;2.63;;;;;;;;;;5066991;28;20048;-74
2023/12/28 06:44:07;;;;;;;7.07;2.05;;;;;;;;;;5072022;28;20040;-74
2023/12/28 06:46:33;;;;;;;12.50;2.60;;;;;;;;;;5066901;28;20483;-74
2023/12/28 06:48:59;;;;;;;11.82;2.75;;;;;;;;;;5062772;28;20530;-74
2023/12/28 06:51:26;;;;;;;9.45;2.38;;;;;;;;;;5072236;28;20071;-74
2023/12/28 06:53:52;;;;;;;11.90;2.83;;;;;;;;;;5074228;28;20037;-74
2023/12/28 06:56:18;;;;;;;12.70;2.70;;;;;;;;;;5079484;28;20529;-74
2023/12/28 06:58:44;;;;;;;11.15;2.42;;;;;;;;;;5067027;28;20048;-74
2023/12/28 07:01:11;;;;;;;13.07;2.67;;;;;;;;;;5073158;28;20054;-74
2023/12/28 07:03:37;;;;;;;12.32;2.92;;;;;;;;;;5060244;28;20102;-74
2023/12/28 07:06:03;;;;;;;9.30;2.30;;;;;;;;;;5059402;28;20049;-74
2023/12/28 07:08:29;;;;;;;12.40;3.10;;;;;;;;;;5069349;28;20414;-74
2023/12/28 07:10:55;;;;;;;12.82;2.40;;;;;;;;;;5059045;28;20089;-74
2023/12/28 07:13:21;;;;;;;11.13;2.55;;;;;;;;;;5059781;28;20029;-74
2023/12/28 07:15:47;;;;;;;13.13;2.78;;;;;;;;;;5045840;28;20059;-74
2023/12/28 07:18:13;;;;;;;11.88;2.55;;;;;;;;;;5066911;28;20070;-74
2023/12/28 07:20:38;;;;;;;13.52;3.20;;;;;;;;;;5064312;28;20036;-74
2023/12/28 07:23:04;;;;;;;12.02;3.15;;;;;;;;;;5063315;28;20517;-74
2023/12/28 07:25:30;;;;;;;8.32;1.95;;;;;;;;;;5061052;28;20033;-74
2023/12/28 07:27:56;;;;;;;9.10;2.40;;;;;;;;;;5050697;28;20091;-74
2023/12/28 07:30:22;;;;;;;11.38;2.13;;;;;;;;;;5062714;28;20044;-74
2023/12/28 07:32:48;;;;;;;14.15;2.78;;;;;;;;;;5055966;28;20073;-74
2023/12/28 07:35:14;;;;;;;15.10;3.08;;;;;;;;;;5067423;28;20064;-74
2023/12/28 07:37:40;;;;;;;14.75;2.53;;;;;;;;;;5068481;28;20479;-74
2023/12/28 07:40:07;;;;;;;11.63;2.47;;;;;;;;;;5067133;28;20040;-74
2023/12/28 07:42:33;;;;;;;17.02;3.20;;;;;;;;;;5059651;28;20044;-74
2023/12/28 07:44:59;;;;;;;16.80;2.75;;;;;;;;;;5063045;28;20036;-74
2023/12/28 07:47:25;;;;;;;13.77;2.80;;;;;;;;;;5059323;28;20040;-74
2023/12/28 07:49:51;;;;;;;16.48;3.15;;;;;;;;;;5070446;28;20452;-75
2023/12/28 07:52:17;;;;;;;9.88;2.30;;;;;;;;;;5057460;28;20055;-75
2023/12/28 07:54:43;;;;;;;9.77;2.60;;;;;;;;;;5061771;28;20403;-75
2023/12/28 07:57:09;;;;;;;14.88;2.78;;;;;;;;;;5058234;28;20086;-75
2023/12/28 07:59:35;;;;;;;16.13;3.30;;;;;;;;;;5064096;28;20040;-75
2023/12/28 08:02:01;;;;;;;16.15;3.05;;;;;;;;;;5041713;28;20577;-75
2023/12/28 08:04:27;;;;;;;12.18;2.63;;;;;;;;;;5045166;28;20052;-74
2023/12/28 08:06:53;;;;;;;11.95;3.30;;;;;;;;;;5060726;28;20499;-74
2023/12/28 08:09:19;;;;;;;13.13;2.67;;;;;;;;;;5070338;28;20037;-74
2023/12/28 08:11:45;;;;;;;11.60;2.42;;;;;;;;;;5065354;28;20548;-74
2023/12/28 08:14:11;;;;;;;16.88;3.08;;;;;;;;;;5061637;28;20037;-74
2023/12/28 08:16:37;;;;;;;15.93;3.13;;;;;;;;;;5061877;28;20095;-74
2023/12/28 08:19:03;;;;;;;13.18;3.30;;;;;;;;;;5049835;28;20475;-74
2023/12/28 08:21:29;;;;;;;16.30;3.40;;;;;;;;;;5067431;28;20037;-75
2023/12/28 08:23:55;;;;;;;18.58;3.10;;;;;;;;;;5064089;28;20559;-75
2023/12/28 08:26:21;;;;;;;18.80;3.67;;;;;;;;;;5064253;28;20063;-75
2023/12/28 08:28:47;;;;;;;15.10;2.75;;;;;;;;;;5065886;28;20068;-75
2023/12/28 08:31:13;;;;;;;15.70;3.30;;;;;;;;;;5062097;28;20033;-75
2023/12/28 08:33:39;;;;;;;20.90;3.55;;;;;;;;;;5064914;28;20512;-75
2023/12/28 08:36:06;;;;;;;21.23;3.30;;;;;;;;;;5062364;28;20044;-75
2023/12/28 08:38:32;;;;;;;13.57;3.17;;;;;;;;;;5068743;28;20049;-75
2023/12/28 08:40:58;;;;;;;20.80;3.28;;;;;;;;;;5064395;28;20044;-74
2023/12/28 08:43:24;;;;;;;19.30;3.00;;;;;;;;;;5062423;28;20029;-74
2023/12/28 08:45:50;;;;;;;15.43;3.13;;;;;;;;;;5062767;28;20037;-74
2023/12/28 08:48:16;;;;;;;19.45;3.55;;;;;;;;;;5063109;28;20043;-74
2023/12/28 08:50:42;;;;;;;18.98;2.80;;;;;;;;;;5063199;28;20041;-74
2023/12/28 08:53:08;;;;;;;16.52;3.40;;;;;;;;;;5063059;28;20078;-74
2023/12/28 08:55:34;;;;;;;16.02;3.60;;;;;;;;;;5059428;28;20037;-74
2023/12/28 08:58:00;;;;;;;15.23;2.80;;;;;;;;;;5062042;28;20037;-74
2023/12/28 09:00:26;;;;;;;18.08;3.25;;;;;;;;;;5065337;28;20033;-74
2023/12/28 09:02:52;;;;;;;17.00;3.28;;;;;;;;;;5063665;28;20040;-74
2023/12/28 09:05:18;;;;;;;19.20;3.30;;;;;;;;;;5059428;28;20041;-73
2023/12/28 09:07:44;;;;;;;17.17;3.15;;;;;;;;;;5061269;28;20398;-73
2023/12/28 09:10:11;;;;;;;22.08;3.33;;;;;;;;;;5062590;28;20037;-73
2023/12/28 09:12:37;;;;;;;22.55;4.00;;;;;;;;;;5066296;28;20037;-74
2023/12/28 09:15:04;;;;;;;14.07;3.10;;;;;;;;;;5059866;28;20041;-74
2023/12/28 09:17:30;;;;;;;14.50;3.50;;;;;;;;;;5042505;28;20044;-75
2023/12/28 09:19:58;;;;;;;15.50;3.28;;;;;;;;;;5061708;28;20039;-75
2023/12/28 09:22:24;;;;;;;15.65;3.50;;;;;;;;;;5055143;28;20044;-75
2023/12/28 09:24:49;;;;;;;19.02;3.20;;;;;;;;;;5058286;28;20449;-74
2023/12/28 09:27:16;;;;;;;16.60;3.15;;;;;;;;;;5066426;28;20090;-74
2023/12/28 09:29:42;;;;;;;16.05;3.60;;;;;;;;;;5061765;28;20040;-73
2023/12/28 09:32:08;;;;;;;15.35;2.70;;;;;;;;;;5056777;28;20091;-74
2023/12/28 09:34:34;;;;;;;20.63;3.85;;;;;;;;;;5065318;28;20033;-74
2023/12/28 09:36:59;;;;;;;16.83;2.70;;;;;;;;;;5063170;28;20487;-74
2023/12/28 09:39:25;;;;;;;18.73;3.35;;;;;;;;;;5056608;28;20040;-74
2023/12/28 09:42:05;;;;;;;16.55;3.20;;;;;;;;;;5058020;28;20487;-74
2023/12/28 09:44:32;;;;;;;15.90;3.25;;;;;;;;;;5061311;28;20048;-74
2023/12/28 09:46:59;;;;;;;19.85;3.90;;;;;;;;;;5043981;28;20058;-74
2023/12/28 09:49:26;;;;;;;15.10;3.22;;;;;;;;;;5041046;28;20040;-74
2023/12/28 09:51:52;;;;;;;18.58;3.08;;;;;;;;;;5059379;28;20048;-74
2023/12/28 09:54:18;;;;;;;14.82;3.25;;;;;;;;;;5040699;28;20032;-75
2023/12/28 09:56:45;;;;;;;20.08;3.50;;;;;;;;;;5048759;28;20097;-74
2023/12/28 09:59:11;;;;;;;19.10;3.42;;;;;;;;;;5060948;28;20078;-74
2023/12/28 10:01:37;;;;;;;16.85;3.08;;;;;;;;;;5052060;28;20079;-74
2023/12/28 10:04:03;;;;;;;21.00;3.85;;;;;;;;;;5041898;28;20052;-74
2023/12/28 10:06:29;;;;;;;19.92;3.90;;;;;;;;;;5060271;28;20045;-73
2023/12/28 10:08:55;;;;;;;12.70;2.58;;;;;;;;;;5062511;28;20052;-74
2023/12/28 10:11:22;;;;;;;16.15;2.50;;;;;;;;;;5059903;28;20120;-74
2023/12/28 10:13:51;;;;;;;14.10;3.03;;;;;;;;;;5068258;28;20036;-74
2023/12/28 10:16:17;;;;;;;15.15;3.28;;;;;;;;;;5072686;28;20514;-74
2023/12/28 10:18:43;;;;;;;14.98;3.33;;;;;;;;;;5076037;28;20082;-74
2023/12/28 10:21:09;;;;;;;16.55;3.22;;;;;;;;;;5073189;28;20544;-74
2023/12/28 10:23:35;;;;;;;13.45;3.05;;;;;;;;;;5072294;28;20036;-74
2023/12/28 10:26:04;;;;;;;14.60;3.17;;;;;;;;;;5070175;28;20036;-73
2023/12/28 10:28:33;;;;;;;17.92;3.03;;;;;;;;;;5067531;28;20090;-74
2023/12/28 10:30:59;;;;;;;15.13;2.75;;;;;;;;;;5063549;28;20037;-74
2023/12/28 10:33:25;;;;;;;17.17;3.83;;;;;;;;;;5068388;28;20551;-74
2023/12/28 10:35:52;;;;;;;14.20;2.75;;;;;;;;;;5066402;28;20332;-74
2023/12/28 10:38:18;;;;;;;20.23;3.22;;;;;;;;;;5058817;28;20033;-74
2023/12/28 10:40:45;;;;;;;18.25;3.60;;;;;;;;;;5069460;28;20082;-74
2023/12/28 10:43:12;;;;;;;16.63;3.03;;;;;;;;;;5068839;28;20048;-74
2023/12/28 10:45:39;;;;;;;16.73;3.35;;;;;;;;;;5065537;28;20398;-74
2023/12/28 10:48:10;;;;;;;21.23;3.08;;;;;;;;;;5064329;28;20033;-74
2023/12/28 10:50:39;;;;;;;19.40;3.37;;;;;;;;;;5069020;28;20394;-74
2023/12/28 10:53:09;;;;;;;18.77;3.22;;;;;;;;;;5063993;28;20036;-73
2023/12/28 10:55:44;;;;;;;18.02;3.05;;;;;;;;;;5059096;28;20133;-74
2023/12/28 10:58:16;;;;;;;17.58;2.83;;;;;;;;;;5064598;28;20036;-74
2023/12/28 11:00:46;;;;;;;14.40;2.83;;;;;;;;;;5072631;28;20032;-74
2023/12/28 11:03:14;;;;;;;13.15;3.33;;;;;;;;;;5061239;28;20040;-74
2023/12/28 11:05:41;;;;;;;14.10;3.25;;;;;;;;;;5066953;28;20037;-73
2023/12/28 11:08:08;;;;;;;14.30;3.20;;;;;;;;;;5069141;28;20043;-74
2023/12/28 11:10:35;;;;;;;17.02;3.53;;;;;;;;;;5072974;28;20036;-74
2023/12/28 11:13:01;;;;;;;9.00;2.78;;;;;;;;;;5071260;28;20491;-74
2023/12/28 11:15:28;;;;;;;19.60;3.47;;;;;;;;;;5072363;28;20028;-74
2023/12/28 11:17:54;;;;;;;11.90;2.30;;;;;;;;;;5069174;28;20390;-74
2023/12/28 11:20:21;;;;;;;14.73;3.30;;;;;;;;;;5067584;28;20482;-74
2023/12/28 11:22:48;;;;;;;14.75;3.22;;;;;;;;;;5064352;28;20044;-74
2023/12/28 11:25:19;;;;;;;14.32;3.00;;;;;;;;;;5065078;28;20388;-74
2023/12/28 11:27:46;;;;;;;14.05;3.05;;;;;;;;;;5066982;28;20032;-74
2023/12/28 11:30:13;;;;;;;14.63;2.90;;;;;;;;;;5069840;28;20126;-74
2023/12/28 11:32:42;;;;;;;10.23;2.45;;;;;;;;;;5098186;22;1049016;-68
2023/12/28 11:35:12;;;;;;;15.70;3.28;;;;;;;;;;5054085;28;20052;-69
2023/12/28 11:37:39;;;;;;;16.13;3.75;;;;;;;;;;5072694;28;20033;-70
2023/12/28 11:40:13;;;;;;;15.45;3.58;;;;;;;;;;5070124;28;20426;-69
2023/12/28 11:42:48;;;;;;;18.15;3.58;;;;;;;;;;5056269;28;20162;-69
2023/12/28 11:45:14;;;;;;;16.98;3.63;;;;;;;;;;5054121;28;20051;-69
2023/12/28 11:47:40;;;;;;;18.90;3.60;;;;;;;;;;5062834;28;20037;-69
2023/12/28 11:50:09;;;;;;;14.45;2.55;;;;;;;;;;5046364;28;20055;-69
2023/12/28 11:52:35;;;;;;;19.20;3.28;;;;;;;;;;5055313;28;20094;-69
2023/12/28 11:55:01;;;;;;;15.02;3.53;;;;;;;;;;5042914;28;20043;-70
2023/12/28 11:57:27;;;;;;;11.80;2.38;;;;;;;;;;5063876;28;20085;-69
2023/12/28 11:59:54;;;;;;;20.75;3.13;;;;;;;;;;5063744;28;20045;-69
2023/12/28 12:02:20;;;;;;;15.68;3.05;;;;;;;;;;5041177;28;20095;-69
2023/12/28 12:04:46;;;;;;;15.43;2.72;;;;;;;;;;5068987;28;20072;-69
2023/12/28 12:07:12;;;;;;;14.75;2.90;;;;;;;;;;5067319;28;20036;-69
2023/12/28 12:09:38;;;;;;;18.80;3.85;;;;;;;;;;5061944;28;20386;-69
2023/12/28 12:12:04;;;;;;;18.35;3.00;;;;;;;;;;5064302;28;20128;-69
2023/12/28 12:14:31;;;;;;;17.20;3.25;;;;;;;;;;5064803;28;20127;-69
2023/12/28 12:16:58;;;;;;;14.88;3.20;;;;;;;;;;5045996;28;20036;-69
2023/12/28 12:19:25;;;;;;;13.45;2.78;;;;;;;;;;5067550;28;20052;-69
2023/12/28 12:21:52;;;;;;;15.50;2.63;;;;;;;;;;5048897;28;20053;-69
2023/12/28 12:24:18;;;;;;;17.27;3.08;;;;;;;;;;5047963;28;20060;-69
2023/12/28 12:26:46;;;;;;;12.85;3.25;;;;;;;;;;5040073;28;20094;-69
2023/12/28 12:29:13;;;;;;;19.67;3.55;;;;;;;;;;5067663;28;20666;-68
2023/12/28 12:31:41;;;;;;;20.70;3.40;;;;;;;;;;5056090;28;20041;-68
2023/12/28 12:34:07;;;;;;;15.18;3.15;;;;;;;;;;5048383;28;20154;-70
2023/12/28 12:36:33;;;;;;;16.30;2.80;;;;;;;;;;5044918;28;20064;-69
2023/12/28 12:38:59;;;;;;;19.17;2.75;;;;;;;;;;5048214;28;20033;-69
2023/12/28 12:41:26;;;;;;;13.30;2.60;;;;;;;;;;5066988;28;20044;-69
2023/12/28 12:43:55;;;;;;;21.80;3.60;;;;;;;;;;5050153;28;20044;-69
2023/12/28 12:46:21;;;;;;;16.85;2.92;;;;;;;;;;5047517;28;20068;-69
2023/12/28 12:49:03;;;;;;;18.80;3.22;;;;;;;;;;5067019;28;20538;-69
2023/12/28 12:51:29;;;;;;;19.80;3.55;;;;;;;;;;5063494;28;20047;-69
2023/12/28 12:53:59;;;;;;;17.77;3.50;;;;;;;;;;5051517;28;20119;-69
2023/12/28 12:56:28;;;;;;;18.02;3.40;;;;;;;;;;5066234;28;20706;-69
2023/12/28 12:58:55;;;;;;;16.08;4.00;;;;;;;;;;5050978;28;20036;-69
2023/12/28 13:01:21;;;;;;;18.15;3.65;;;;;;;;;;5047450;28;20455;-69
2023/12/28 13:03:48;;;;;;;21.00;3.60;;;;;;;;;;5052387;28;20047;-69
2023/12/28 13:06:14;;;;;;;24.23;4.40;;;;;;;;;;5049576;28;20052;-69
2023/12/28 13:08:40;;;;;;;21.42;4.13;;;;;;;;;;5064115;28;20377;-69
2023/12/28 13:11:09;;;;;;;17.45;3.20;;;;;;;;;;5050407;28;20094;-69
2023/12/28 13:13:35;;;;;;;21.33;4.00;;;;;;;;;;5050627;28;20037;-70
2023/12/28 13:16:02;;;;;;;19.02;4.00;;;;;;;;;;5050892;28;20048;-69
2023/12/28 13:18:28;;;;;;;22.70;3.78;;;;;;;;;;5052473;28;20036;-70
2023/12/28 13:20:54;;;;;;;26.33;4.53;;;;;;;;;;5052027;28;20509;-69
2023/12/28 13:23:20;;;;;;;23.15;3.90;;;;;;;;;;5070554;28;20036;-69
2023/12/28 13:25:46;;;;;;;18.05;3.92;;;;;;;;;;5050555;28;20080;-68
2023/12/28 13:28:13;;;;;;;13.73;3.10;;;;;;;;;;5052263;28;20044;-68
2023/12/28 13:30:39;;;;;;;18.40;3.60;;;;;;;;;;5078632;28;20043;-69
2023/12/28 13:33:05;;;;;;;16.60;3.38;;;;;;;;;;5067285;28;20044;-69
2023/12/28 13:35:34;;;;;;;25.70;3.72;;;;;;;;;;5050131;28;20131;-69
2023/12/28 13:38:03;;;;;;;27.33;6.53;;;;;;;;;;5056690;28;20116;-69
2023/12/28 13:40:32;;;;;;;18.98;5.18;;;;;;;;;;5049676;28;20101;-70
2023/12/28 13:42:58;;;;;;;22.45;4.88;;;;;;;;;;5055911;28;20045;-69
2023/12/28 13:45:24;;;;;;;21.63;5.55;;;;;;;;;;5053490;28;20082;-70
2023/12/28 13:47:50;;;;;;;21.23;5.40;;;;;;;;;;5050372;28;20040;-69
2023/12/28 13:50:16;;;;;;;16.00;3.60;;;;;;;;;;5068790;28;20063;-69
2023/12/28 13:52:42;;;;;;;15.75;3.78;;;;;;;;;;5047309;28;20074;-69
2023/12/28 13:55:08;;;;;;;19.17;3.90;;;;;;;;;;5055309;28;20047;-69
2023/12/28 13:57:34;;;;;;;16.52;3.47;;;;;;;;;;5050135;28;20052;-69
2023/12/28 14:00:01;;;;;;;30.05;3.83;;;;;;;;;;5042612;28;20123;-69
2023/12/28 14:02:30;;;;;;;20.15;3.42;;;;;;;;;;5041007;28;20045;-69
2023/12/28 14:04:56;;;;;;;17.98;3.25;;;;;;;;;;5068928;28;20105;-69
2023/12/28 14:07:25;;;;;;;20.65;4.05;;;;;;;;;;5046181;28;20040;-69
2023/12/28 14:09:51;;;;;;;22.08;6.25;;;;;;;;;;5047819;28;20412;-69
2023/12/28 14:12:17;;;;;;;19.70;9.18;;;;;;;;;;5044209;28;20048;-69
2023/12/28 14:14:43;;;;;;;15.32;3.40;;;;;;;;;;5054834;28;20067;-69
2023/12/28 14:17:09;;;;;;;13.45;3.35;;;;;;;;;;5070405;28;20032;-69
2023/12/28 14:19:35;;;;;;;18.67;4.22;;;;;;;;;;5066517;28;20072;-69
2023/12/28 14:22:02;;;;;;;15.40;3.67;;;;;;;;;;5046479;28;20051;-69
2023/12/28 14:24:28;;;;;;;19.85;3.58;;;;;;;;;;5065741;28;20037;-69
2023/12/28 14:26:55;;;;;;;19.48;4.05;;;;;;;;;;5049742;28;20051;-69
2023/12/28 14:29:21;;;;;;;20.88;3.65;;;;;;;;;;5048702;28;20036;-69
2023/12/28 14:31:47;;;;;;;15.52;3.33;;;;;;;;;;5055188;28;20079;-69